sensor_id;sensor_type;location;lat;lon;timestamp;P1;durP1;ratioP1;P2;durP2;ratioP2
28176;SDS011;15461;41.652;9.378;2022-09-14T00:01:40;9.65;;;2.42;;
28176;SDS011;15461;41.652;9.378;2022-09-14T00:04:15;9.40;;;2.67;;
28176;SDS011;15461;41.652;9.378;2022-09-14T00:06:43;8.50;;;2.65;;
28176;SDS011;15461;41.652;9.378;2022-09-14T00:09:16;10.30;;;2.90;;
28176;SDS011;15461;41.652;9.378;2022-09-14T00:11:44;9.48;;;2.75;;
28176;SDS011;15461;41.652;9.378;2022-09-14T00:14:10;9.98;;;2.47;;
28176;SDS011;15461;41.652;9.378;2022-09-14T00:16:38;9.85;;;3.00;;
28176;SDS011;15461;41.652;9.378;2022-09-14T00:19:15;5.45;;;2.17;;
28176;SDS011;15461;41.652;9.378;2022-09-14T00:21:51;9.68;;;2.67;;
28176;SDS011;15461;41.652;9.378;2022-09-14T00:24:19;7.32;;;2.40;;
28176;SDS011;15461;41.652;9.378;2022-09-14T00:26:46;8.43;;;2.55;;
28176;SDS011;15461;41.652;9.378;2022-09-14T00:29:12;6.25;;;2.40;;
28176;SDS011;15461;41.652;9.378;2022-09-14T00:31:39;14.07;;;3.15;;
28176;SDS011;15461;41.652;9.378;2022-09-14T00:34:06;9.15;;;2.45;;
28176;SDS011;15461;41.652;9.378;2022-09-14T00:36:36;10.05;;;2.90;;
28176;SDS011;15461;41.652;9.378;2022-09-14T00:39:03;10.23;;;2.60;;
28176;SDS011;15461;41.652;9.378;2022-09-14T00:41:33;7.90;;;2.70;;
28176;SDS011;15461;41.652;9.378;2022-09-14T00:46:34;8.95;;;2.53;;
28176;SDS011;15461;41.652;9.378;2022-09-14T00:49:19;9.05;;;2.70;;
28176;SDS011;15461;41.652;9.378;2022-09-14T00:52:02;9.60;;;2.67;;
28176;SDS011;15461;41.652;9.378;2022-09-14T00:54:38;9.63;;;2.40;;
28176;SDS011;15461;41.652;9.378;2022-09-14T00:57:08;14.05;;;2.63;;
28176;SDS011;15461;41.652;9.378;2022-09-14T00:59:35;8.77;;;2.33;;
28176;SDS011;15461;41.652;9.378;2022-09-14T01:02:03;9.07;;;2.28;;
28176;SDS011;15461;41.652;9.378;2022-09-14T01:04:31;11.70;;;2.70;;
28176;SDS011;15461;41.652;9.378;2022-09-14T01:17:33;6.93;;;2.47;;
28176;SDS011;15461;41.652;9.378;2022-09-14T01:22:51;5.30;;;2.30;;
28176;SDS011;15461;41.652;9.378;2022-09-14T01:25:26;10.15;;;2.95;;
28176;SDS011;15461;41.652;9.378;2022-09-14T01:29:02;6.68;;;2.70;;
28176;SDS011;15461;41.652;9.378;2022-09-14T01:31:15;7.25;;;2.40;;
28176;SDS011;15461;41.652;9.378;2022-09-14T01:34:02;7.13;;;2.72;;
28176;SDS011;15461;41.652;9.378;2022-09-14T01:36:41;10.07;;;2.53;;
28176;SDS011;15461;41.652;9.378;2022-09-14T01:39:13;7.45;;;2.47;;
28176;SDS011;15461;41.652;9.378;2022-09-14T01:41:40;10.68;;;2.63;;
28176;SDS011;15461;41.652;9.378;2022-09-14T01:44:09;7.72;;;2.45;;
28176;SDS011;15461;41.652;9.378;2022-09-14T01:46:41;8.95;;;2.65;;
28176;SDS011;15461;41.652;9.378;2022-09-14T01:52:26;5.97;;;2.30;;
28176;SDS011;15461;41.652;9.378;2022-09-14T01:55:04;9.25;;;2.55;;
28176;SDS011;15461;41.652;9.378;2022-09-14T01:57:41;7.10;;;2.30;;
28176;SDS011;15461;41.652;9.378;2022-09-14T02:00:22;12.05;;;2.53;;
28176;SDS011;15461;41.652;9.378;2022-09-14T02:02:52;10.07;;;2.75;;
28176;SDS011;15461;41.652;9.378;2022-09-14T02:05:33;11.60;;;2.55;;
28176;SDS011;15461;41.652;9.378;2022-09-14T02:08:05;10.27;;;2.42;;
28176;SDS011;15461;41.652;9.378;2022-09-14T02:10:31;8.10;;;2.65;;
28176;SDS011;15461;41.652;9.378;2022-09-14T02:12:57;6.68;;;2.28;;
28176;SDS011;15461;41.652;9.378;2022-09-14T02:15:23;6.35;;;2.33;;
28176;SDS011;15461;41.652;9.378;2022-09-14T02:17:52;7.15;;;2.70;;
28176;SDS011;15461;41.652;9.378;2022-09-14T02:20:25;7.30;;;2.83;;
28176;SDS011;15461;41.652;9.378;2022-09-14T02:22:55;5.35;;;2.28;;
28176;SDS011;15461;41.652;9.378;2022-09-14T02:25:21;5.78;;;2.30;;
28176;SDS011;15461;41.652;9.378;2022-09-14T02:27:47;8.55;;;2.63;;
28176;SDS011;15461;41.652;9.378;2022-09-14T02:30:13;11.60;;;2.72;;
28176;SDS011;15461;41.652;9.378;2022-09-14T02:35:44;10.48;;;2.33;;
28176;SDS011;15461;41.652;9.378;2022-09-14T02:41:13;9.90;;;3.17;;
28176;SDS011;15461;41.652;9.378;2022-09-14T02:43:46;6.90;;;2.60;;
28176;SDS011;15461;41.652;9.378;2022-09-14T02:51:29;6.55;;;2.60;;
28176;SDS011;15461;41.652;9.378;2022-09-14T02:56:58;8.93;;;2.22;;
28176;SDS011;15461;41.652;9.378;2022-09-14T02:59:25;8.05;;;2.30;;
28176;SDS011;15461;41.652;9.378;2022-09-14T03:01:51;12.40;;;2.90;;
28176;SDS011;15461;41.652;9.378;2022-09-14T03:04:17;8.68;;;2.80;;
28176;SDS011;15461;41.652;9.378;2022-09-14T03:06:43;9.15;;;2.40;;
28176;SDS011;15461;41.652;9.378;2022-09-14T03:09:09;7.07;;;2.60;;
28176;SDS011;15461;41.652;9.378;2022-09-14T03:11:35;6.57;;;2.67;;
28176;SDS011;15461;41.652;9.378;2022-09-14T03:14:01;9.25;;;2.55;;
28176;SDS011;15461;41.652;9.378;2022-09-14T03:16:27;9.15;;;2.47;;
28176;SDS011;15461;41.652;9.378;2022-09-14T03:18:53;10.23;;;2.70;;
28176;SDS011;15461;41.652;9.378;2022-09-14T03:21:18;11.13;;;2.78;;
28176;SDS011;15461;41.652;9.378;2022-09-14T03:23:48;7.28;;;2.75;;
28176;SDS011;15461;41.652;9.378;2022-09-14T03:26:16;10.73;;;3.08;;
28176;SDS011;15461;41.652;9.378;2022-09-14T03:28:48;9.95;;;2.88;;
28176;SDS011;15461;41.652;9.378;2022-09-14T03:31:15;8.32;;;2.63;;
28176;SDS011;15461;41.652;9.378;2022-09-14T03:33:41;11.20;;;2.72;;
28176;SDS011;15461;41.652;9.378;2022-09-14T03:36:17;8.88;;;2.88;;
28176;SDS011;15461;41.652;9.378;2022-09-14T03:38:44;8.65;;;2.88;;
28176;SDS011;15461;41.652;9.378;2022-09-14T03:41:16;7.22;;;2.85;;
28176;SDS011;15461;41.652;9.378;2022-09-14T03:43:43;9.40;;;2.90;;
28176;SDS011;15461;41.652;9.378;2022-09-14T03:46:10;9.90;;;2.67;;
28176;SDS011;15461;41.652;9.378;2022-09-14T03:48:37;11.13;;;2.92;;
28176;SDS011;15461;41.652;9.378;2022-09-14T03:51:04;11.55;;;2.65;;
28176;SDS011;15461;41.652;9.378;2022-09-14T03:53:31;9.35;;;2.80;;
28176;SDS011;15461;41.652;9.378;2022-09-14T03:55:58;5.55;;;2.33;;
28176;SDS011;15461;41.652;9.378;2022-09-14T03:58:24;8.82;;;2.65;;
28176;SDS011;15461;41.652;9.378;2022-09-14T04:00:51;9.68;;;2.75;;
28176;SDS011;15461;41.652;9.378;2022-09-14T04:03:17;15.68;;;3.03;;
28176;SDS011;15461;41.652;9.378;2022-09-14T04:05:43;11.68;;;3.10;;
28176;SDS011;15461;41.652;9.378;2022-09-14T04:08:19;6.45;;;2.60;;
28176;SDS011;15461;41.652;9.378;2022-09-14T04:10:45;8.88;;;3.00;;
28176;SDS011;15461;41.652;9.378;2022-09-14T04:13:11;14.00;;;3.08;;
28176;SDS011;15461;41.652;9.378;2022-09-14T04:15:37;9.70;;;2.80;;
28176;SDS011;15461;41.652;9.378;2022-09-14T04:18:03;10.80;;;2.95;;
28176;SDS011;15461;41.652;9.378;2022-09-14T04:20:28;16.50;;;3.38;;
28176;SDS011;15461;41.652;9.378;2022-09-14T04:22:54;13.13;;;2.92;;
28176;SDS011;15461;41.652;9.378;2022-09-14T04:25:20;8.63;;;2.80;;
28176;SDS011;15461;41.652;9.378;2022-09-14T04:27:47;10.30;;;3.10;;
28176;SDS011;15461;41.652;9.378;2022-09-14T04:30:14;10.68;;;2.85;;
28176;SDS011;15461;41.652;9.378;2022-09-14T04:32:40;6.20;;;2.60;;
28176;SDS011;15461;41.652;9.378;2022-09-14T04:35:07;10.00;;;2.60;;
28176;SDS011;15461;41.652;9.378;2022-09-14T04:37:33;11.85;;;2.95;;
28176;SDS011;15461;41.652;9.378;2022-09-14T04:39:59;11.05;;;2.90;;
28176;SDS011;15461;41.652;9.378;2022-09-14T04:42:25;9.65;;;3.25;;
28176;SDS011;15461;41.652;9.378;2022-09-14T04:44:51;11.50;;;3.10;;
28176;SDS011;15461;41.652;9.378;2022-09-14T04:47:17;11.52;;;3.13;;
28176;SDS011;15461;41.652;9.378;2022-09-14T04:49:42;7.50;;;2.72;;
28176;SDS011;15461;41.652;9.378;2022-09-14T04:52:08;8.68;;;2.80;;
28176;SDS011;15461;41.652;9.378;2022-09-14T04:54:34;8.30;;;2.75;;
28176;SDS011;15461;41.652;9.378;2022-09-14T04:57:00;10.98;;;3.05;;
28176;SDS011;15461;41.652;9.378;2022-09-14T04:59:26;6.90;;;2.88;;
28176;SDS011;15461;41.652;9.378;2022-09-14T05:01:52;8.20;;;2.92;;
28176;SDS011;15461;41.652;9.378;2022-09-14T05:04:18;8.85;;;2.90;;
28176;SDS011;15461;41.652;9.378;2022-09-14T05:06:44;7.75;;;2.70;;
28176;SDS011;15461;41.652;9.378;2022-09-14T05:09:11;8.15;;;3.17;;
28176;SDS011;15461;41.652;9.378;2022-09-14T05:11:40;8.30;;;2.78;;
28176;SDS011;15461;41.652;9.378;2022-09-14T05:14:06;14.55;;;2.80;;
28176;SDS011;15461;41.652;9.378;2022-09-14T05:16:35;10.02;;;3.13;;
28176;SDS011;15461;41.652;9.378;2022-09-14T05:19:03;8.45;;;2.92;;
28176;SDS011;15461;41.652;9.378;2022-09-14T05:21:32;9.80;;;3.08;;
28176;SDS011;15461;41.652;9.378;2022-09-14T05:24:00;5.80;;;2.80;;
28176;SDS011;15461;41.652;9.378;2022-09-14T05:26:28;12.05;;;3.08;;
28176;SDS011;15461;41.652;9.378;2022-09-14T05:28:56;17.65;;;3.63;;
28176;SDS011;15461;41.652;9.378;2022-09-14T05:31:23;17.15;;;3.28;;
28176;SDS011;15461;41.652;9.378;2022-09-14T05:33:50;10.10;;;2.80;;
28176;SDS011;15461;41.652;9.378;2022-09-14T05:36:17;12.38;;;3.22;;
28176;SDS011;15461;41.652;9.378;2022-09-14T05:38:44;26.40;;;3.47;;
28176;SDS011;15461;41.652;9.378;2022-09-14T05:41:11;19.30;;;3.05;;
28176;SDS011;15461;41.652;9.378;2022-09-14T05:43:38;13.77;;;3.28;;
28176;SDS011;15461;41.652;9.378;2022-09-14T05:46:12;13.13;;;3.22;;
28176;SDS011;15461;41.652;9.378;2022-09-14T05:48:39;13.73;;;3.17;;
28176;SDS011;15461;41.652;9.378;2022-09-14T05:51:08;9.27;;;3.42;;
28176;SDS011;15461;41.652;9.378;2022-09-14T05:53:38;10.95;;;3.42;;
28176;SDS011;15461;41.652;9.378;2022-09-14T05:56:05;12.88;;;3.35;;
28176;SDS011;15461;41.652;9.378;2022-09-14T05:58:36;7.65;;;2.78;;
28176;SDS011;15461;41.652;9.378;2022-09-14T06:01:14;11.75;;;3.65;;
28176;SDS011;15461;41.652;9.378;2022-09-14T06:03:44;11.05;;;2.90;;
28176;SDS011;15461;41.652;9.378;2022-09-14T06:06:12;7.78;;;3.03;;
28176;SDS011;15461;41.652;9.378;2022-09-14T06:08:39;8.75;;;2.80;;
28176;SDS011;15461;41.652;9.378;2022-09-14T06:11:11;10.90;;;3.40;;
28176;SDS011;15461;41.652;9.378;2022-09-14T06:13:39;8.70;;;3.13;;
28176;SDS011;15461;41.652;9.378;2022-09-14T06:16:06;12.85;;;2.80;;
28176;SDS011;15461;41.652;9.378;2022-09-14T06:18:35;10.00;;;2.95;;
28176;SDS011;15461;41.652;9.378;2022-09-14T06:21:02;13.73;;;3.30;;
28176;SDS011;15461;41.652;9.378;2022-09-14T06:23:29;9.07;;;2.90;;
28176;SDS011;15461;41.652;9.378;2022-09-14T06:25:57;14.13;;;2.85;;
28176;SDS011;15461;41.652;9.378;2022-09-14T06:28:25;9.80;;;2.80;;
28176;SDS011;15461;41.652;9.378;2022-09-14T06:30:52;8.02;;;2.65;;
28176;SDS011;15461;41.652;9.378;2022-09-14T06:33:18;7.95;;;3.03;;
28176;SDS011;15461;41.652;9.378;2022-09-14T06:38:27;8.03;;;3.07;;
28176;SDS011;15461;41.652;9.378;2022-09-14T06:40:54;14.23;;;3.00;;
28176;SDS011;15461;41.652;9.378;2022-09-14T06:43:29;10.38;;;3.00;;
28176;SDS011;15461;41.652;9.378;2022-09-14T06:48:30;10.52;;;2.78;;
28176;SDS011;15461;41.652;9.378;2022-09-14T06:51:09;16.77;;;3.17;;
28176;SDS011;15461;41.652;9.378;2022-09-14T06:53:39;16.15;;;2.90;;
28176;SDS011;15461;41.652;9.378;2022-09-14T06:56:05;8.10;;;2.25;;
28176;SDS011;15461;41.652;9.378;2022-09-14T06:58:31;16.63;;;3.40;;
28176;SDS011;15461;41.652;9.378;2022-09-14T07:01:01;8.68;;;2.95;;
28176;SDS011;15461;41.652;9.378;2022-09-14T07:03:31;20.45;;;3.05;;
28176;SDS011;15461;41.652;9.378;2022-09-14T07:06:04;13.18;;;3.15;;
28176;SDS011;15461;41.652;9.378;2022-09-14T07:08:38;13.75;;;2.97;;
28176;SDS011;15461;41.652;9.378;2022-09-14T07:11:05;11.95;;;2.72;;
28176;SDS011;15461;41.652;9.378;2022-09-14T07:13:32;11.60;;;2.70;;
28176;SDS011;15461;41.652;9.378;2022-09-14T07:15:58;15.73;;;2.53;;
28176;SDS011;15461;41.652;9.378;2022-09-14T07:18:24;14.90;;;3.28;;
28176;SDS011;15461;41.652;9.378;2022-09-14T07:20:52;12.15;;;2.45;;
28176;SDS011;15461;41.652;9.378;2022-09-14T07:23:19;17.88;;;2.88;;
28176;SDS011;15461;41.652;9.378;2022-09-14T07:25:45;11.43;;;2.50;;
28176;SDS011;15461;41.652;9.378;2022-09-14T07:28:11;7.68;;;2.22;;
28176;SDS011;15461;41.652;9.378;2022-09-14T07:30:37;11.27;;;2.28;;
28176;SDS011;15461;41.652;9.378;2022-09-14T07:33:05;9.02;;;2.50;;
28176;SDS011;15461;41.652;9.378;2022-09-14T07:35:31;11.18;;;2.20;;
28176;SDS011;15461;41.652;9.378;2022-09-14T07:37:57;10.55;;;2.13;;
28176;SDS011;15461;41.652;9.378;2022-09-14T07:40:23;14.20;;;2.40;;
28176;SDS011;15461;41.652;9.378;2022-09-14T07:42:51;18.77;;;3.20;;
28176;SDS011;15461;41.652;9.378;2022-09-14T07:45:18;12.02;;;2.80;;
28176;SDS011;15461;41.652;9.378;2022-09-14T07:47:45;26.45;;;3.05;;
28176;SDS011;15461;41.652;9.378;2022-09-14T07:50:11;24.13;;;3.05;;
28176;SDS011;15461;41.652;9.378;2022-09-14T07:52:38;15.18;;;2.92;;
28176;SDS011;15461;41.652;9.378;2022-09-14T07:55:04;20.98;;;3.10;;
28176;SDS011;15461;41.652;9.378;2022-09-14T07:57:31;35.20;;;2.92;;
28176;SDS011;15461;41.652;9.378;2022-09-14T07:59:57;17.80;;;2.60;;
28176;SDS011;15461;41.652;9.378;2022-09-14T08:02:23;14.55;;;2.45;;
28176;SDS011;15461;41.652;9.378;2022-09-14T08:04:49;15.07;;;2.90;;
28176;SDS011;15461;41.652;9.378;2022-09-14T08:07:18;17.77;;;3.10;;
28176;SDS011;15461;41.652;9.378;2022-09-14T08:09:44;14.07;;;2.80;;
28176;SDS011;15461;41.652;9.378;2022-09-14T08:12:11;21.17;;;3.20;;
28176;SDS011;15461;41.652;9.378;2022-09-14T08:14:40;12.40;;;2.45;;
28176;SDS011;15461;41.652;9.378;2022-09-14T08:17:06;18.40;;;2.60;;
28176;SDS011;15461;41.652;9.378;2022-09-14T08:19:34;12.77;;;2.25;;
28176;SDS011;15461;41.652;9.378;2022-09-14T08:22:01;15.82;;;2.60;;
28176;SDS011;15461;41.652;9.378;2022-09-14T08:24:28;13.80;;;2.83;;
28176;SDS011;15461;41.652;9.378;2022-09-14T08:26:55;16.67;;;2.53;;
28176;SDS011;15461;41.652;9.378;2022-09-14T08:29:21;12.93;;;2.25;;
28176;SDS011;15461;41.652;9.378;2022-09-14T08:31:47;10.73;;;2.20;;
28176;SDS011;15461;41.652;9.378;2022-09-14T08:34:15;12.75;;;2.30;;
28176;SDS011;15461;41.652;9.378;2022-09-14T08:36:43;26.75;;;3.20;;
28176;SDS011;15461;41.652;9.378;2022-09-14T08:39:11;21.48;;;3.47;;
28176;SDS011;15461;41.652;9.378;2022-09-14T08:41:54;34.75;;;3.35;;
28176;SDS011;15461;41.652;9.378;2022-09-14T08:54:59;19.08;;;3.40;;
28176;SDS011;15461;41.652;9.378;2022-09-14T08:57:40;14.95;;;2.60;;
28176;SDS011;15461;41.652;9.378;2022-09-14T09:00:11;16.23;;;3.22;;
28176;SDS011;15461;41.652;9.378;2022-09-14T09:11:08;14.15;;;2.95;;
28176;SDS011;15461;41.652;9.378;2022-09-14T09:13:41;18.25;;;3.38;;
28176;SDS011;15461;41.652;9.378;2022-09-14T09:16:09;13.43;;;2.50;;
28176;SDS011;15461;41.652;9.378;2022-09-14T09:23:46;14.73;;;2.83;;
28176;SDS011;15461;41.652;9.378;2022-09-14T09:26:22;19.25;;;3.13;;
28176;SDS011;15461;41.652;9.378;2022-09-14T09:28:53;27.88;;;4.32;;
28176;SDS011;15461;41.652;9.378;2022-09-14T09:34:22;21.30;;;3.05;;
28176;SDS011;15461;41.652;9.378;2022-09-14T09:37:09;20.80;;;3.28;;
28176;SDS011;15461;41.652;9.378;2022-09-14T09:39:42;17.33;;;2.88;;
28176;SDS011;15461;41.652;9.378;2022-09-14T09:42:19;25.77;;;2.97;;
28176;SDS011;15461;41.652;9.378;2022-09-14T09:44:54;21.98;;;2.95;;
28176;SDS011;15461;41.652;9.378;2022-09-14T09:47:25;15.40;;;2.92;;
28176;SDS011;15461;41.652;9.378;2022-09-14T09:49:59;15.40;;;2.97;;
28176;SDS011;15461;41.652;9.378;2022-09-14T09:52:28;19.90;;;3.50;;
28176;SDS011;15461;41.652;9.378;2022-09-14T09:54:55;18.08;;;2.63;;
28176;SDS011;15461;41.652;9.378;2022-09-14T10:00:07;20.40;;;3.27;;
28176;SDS011;15461;41.652;9.378;2022-09-14T10:02:44;16.67;;;2.72;;
28176;SDS011;15461;41.652;9.378;2022-09-14T10:05:18;16.42;;;2.97;;
28176;SDS011;15461;41.652;9.378;2022-09-14T10:10:14;14.52;;;2.60;;
28176;SDS011;15461;41.652;9.378;2022-09-14T10:12:46;20.65;;;3.17;;
28176;SDS011;15461;41.652;9.378;2022-09-14T10:15:37;16.38;;;2.40;;
28176;SDS011;15461;41.652;9.378;2022-09-14T10:18:14;15.38;;;2.42;;
28176;SDS011;15461;41.652;9.378;2022-09-14T10:25:46;21.23;;;2.70;;
28176;SDS011;15461;41.652;9.378;2022-09-14T10:33:36;18.20;;;2.97;;
28176;SDS011;15461;41.652;9.378;2022-09-14T10:38:50;14.38;;;2.22;;
28176;SDS011;15461;41.652;9.378;2022-09-14T10:41:24;12.63;;;2.40;;
28176;SDS011;15461;41.652;9.378;2022-09-14T10:55:37;22.50;;;3.00;;
28176;SDS011;15461;41.652;9.378;2022-09-14T11:04:01;11.40;;;2.35;;
28176;SDS011;15461;41.652;9.378;2022-09-14T11:14:53;19.38;;;2.97;;
28176;SDS011;15461;41.652;9.378;2022-09-14T11:25:47;14.88;;;2.67;;
28176;SDS011;15461;41.652;9.378;2022-09-14T11:28:30;22.17;;;3.38;;
28176;SDS011;15461;41.652;9.378;2022-09-14T11:31:14;13.60;;;2.50;;
28176;SDS011;15461;41.652;9.378;2022-09-14T11:34:00;34.17;;;5.15;;
28176;SDS011;15461;41.652;9.378;2022-09-14T11:36:48;22.95;;;3.33;;
28176;SDS011;15461;41.652;9.378;2022-09-14T11:39:23;15.45;;;2.75;;
28176;SDS011;15461;41.652;9.378;2022-09-14T11:42:19;16.52;;;2.92;;
28176;SDS011;15461;41.652;9.378;2022-09-14T11:44:58;18.83;;;3.13;;
28176;SDS011;15461;41.652;9.378;2022-09-14T11:47:40;18.65;;;2.95;;
28176;SDS011;15461;41.652;9.378;2022-09-14T11:50:18;18.92;;;3.40;;
28176;SDS011;15461;41.652;9.378;2022-09-14T11:53:13;40.38;;;6.35;;
28176;SDS011;15461;41.652;9.378;2022-09-14T11:55:44;15.30;;;3.03;;
28176;SDS011;15461;41.652;9.378;2022-09-14T12:00:43;21.70;;;3.20;;
28176;SDS011;15461;41.652;9.378;2022-09-14T12:03:17;15.88;;;2.90;;
28176;SDS011;15461;41.652;9.378;2022-09-14T12:05:45;19.00;;;2.50;;
28176;SDS011;15461;41.652;9.378;2022-09-14T12:08:35;12.10;;;2.40;;
28176;SDS011;15461;41.652;9.378;2022-09-14T12:11:04;14.52;;;3.13;;
28176;SDS011;15461;41.652;9.378;2022-09-14T12:14:12;19.00;;;3.33;;
28176;SDS011;15461;41.652;9.378;2022-09-14T12:19:30;14.97;;;3.10;;
28176;SDS011;15461;41.652;9.378;2022-09-14T12:27:37;20.67;;;2.88;;
28176;SDS011;15461;41.652;9.378;2022-09-14T13:04:43;24.08;;;3.58;;
28176;SDS011;15461;41.652;9.378;2022-09-14T13:07:15;23.88;;;3.90;;
28176;SDS011;15461;41.652;9.378;2022-09-14T13:09:53;25.40;;;3.85;;
28176;SDS011;15461;41.652;9.378;2022-09-14T13:14:51;19.85;;;3.90;;
28176;SDS011;15461;41.652;9.378;2022-09-14T13:17:20;23.48;;;3.65;;
28176;SDS011;15461;41.652;9.378;2022-09-14T13:22:24;23.40;;;3.88;;
28176;SDS011;15461;41.652;9.378;2022-09-14T13:24:51;26.85;;;3.72;;
28176;SDS011;15461;41.652;9.378;2022-09-14T13:27:28;22.35;;;3.35;;
28176;SDS011;15461;41.652;9.378;2022-09-14T13:30:04;16.35;;;3.03;;
28176;SDS011;15461;41.652;9.378;2022-09-14T13:32:43;23.27;;;3.20;;
28176;SDS011;15461;41.652;9.378;2022-09-14T13:35:17;19.35;;;3.30;;
28176;SDS011;15461;41.652;9.378;2022-09-14T13:37:51;28.85;;;4.22;;
28176;SDS011;15461;41.652;9.378;2022-09-14T13:40:21;20.73;;;3.40;;
28176;SDS011;15461;41.652;9.378;2022-09-14T13:42:49;21.40;;;3.47;;
28176;SDS011;15461;41.652;9.378;2022-09-14T13:45:15;23.15;;;3.90;;
28176;SDS011;15461;41.652;9.378;2022-09-14T13:47:41;23.42;;;3.05;;
28176;SDS011;15461;41.652;9.378;2022-09-14T13:50:07;21.25;;;3.60;;
28176;SDS011;15461;41.652;9.378;2022-09-14T13:52:37;22.40;;;3.50;;
28176;SDS011;15461;41.652;9.378;2022-09-14T13:58:18;17.73;;;3.60;;
28176;SDS011;15461;41.652;9.378;2022-09-14T14:05:57;30.58;;;3.45;;
28176;SDS011;15461;41.652;9.378;2022-09-14T14:08:27;35.92;;;3.40;;
28176;SDS011;15461;41.652;9.378;2022-09-14T14:11:02;29.85;;;3.97;;
28176;SDS011;15461;41.652;9.378;2022-09-14T14:13:31;24.25;;;2.78;;
28176;SDS011;15461;41.652;9.378;2022-09-14T14:18:56;23.40;;;3.85;;
28176;SDS011;15461;41.652;9.378;2022-09-14T14:26:56;32.13;;;3.45;;
28176;SDS011;15461;41.652;9.378;2022-09-14T14:29:22;23.95;;;3.53;;
28176;SDS011;15461;41.652;9.378;2022-09-14T14:31:49;21.98;;;3.75;;
28176;SDS011;15461;41.652;9.378;2022-09-14T14:34:17;29.45;;;3.10;;
28176;SDS011;15461;41.652;9.378;2022-09-14T14:36:45;27.80;;;4.00;;
28176;SDS011;15461;41.652;9.378;2022-09-14T14:39:14;18.75;;;3.38;;
28176;SDS011;15461;41.652;9.378;2022-09-14T14:41:49;28.67;;;3.80;;
28176;SDS011;15461;41.652;9.378;2022-09-14T14:44:19;23.70;;;3.35;;
28176;SDS011;15461;41.652;9.378;2022-09-14T14:46:48;19.88;;;3.45;;
28176;SDS011;15461;41.652;9.378;2022-09-14T14:49:15;21.95;;;3.22;;
28176;SDS011;15461;41.652;9.378;2022-09-14T14:51:42;21.58;;;3.08;;
28176;SDS011;15461;41.652;9.378;2022-09-14T14:54:08;17.73;;;2.80;;
28176;SDS011;15461;41.652;9.378;2022-09-14T14:56:37;25.15;;;3.88;;
28176;SDS011;15461;41.652;9.378;2022-09-14T14:59:26;22.33;;;3.13;;
28176;SDS011;15461;41.652;9.378;2022-09-14T15:01:52;25.55;;;3.88;;
28176;SDS011;15461;41.652;9.378;2022-09-14T15:04:19;22.33;;;3.22;;
28176;SDS011;15461;41.652;9.378;2022-09-14T15:06:45;27.45;;;3.35;;
28176;SDS011;15461;41.652;9.378;2022-09-14T15:09:12;25.42;;;3.97;;
28176;SDS011;15461;41.652;9.378;2022-09-14T15:11:40;25.27;;;3.63;;
28176;SDS011;15461;41.652;9.378;2022-09-14T15:14:13;27.90;;;3.88;;
28176;SDS011;15461;41.652;9.378;2022-09-14T15:16:41;21.15;;;3.22;;
28176;SDS011;15461;41.652;9.378;2022-09-14T15:19:07;23.73;;;3.60;;
28176;SDS011;15461;41.652;9.378;2022-09-14T15:21:35;22.92;;;3.50;;
28176;SDS011;15461;41.652;9.378;2022-09-14T15:24:01;18.70;;;3.58;;
28176;SDS011;15461;41.652;9.378;2022-09-14T15:26:28;28.02;;;3.42;;
28176;SDS011;15461;41.652;9.378;2022-09-14T15:28:54;29.17;;;4.78;;
28176;SDS011;15461;41.652;9.378;2022-09-14T15:31:20;23.88;;;3.63;;
28176;SDS011;15461;41.652;9.378;2022-09-14T15:33:46;37.38;;;4.53;;
28176;SDS011;15461;41.652;9.378;2022-09-14T15:36:12;14.77;;;3.33;;
28176;SDS011;15461;41.652;9.378;2022-09-14T15:38:58;19.08;;;3.30;;
28176;SDS011;15461;41.652;9.378;2022-09-14T15:41:24;22.98;;;3.85;;
28176;SDS011;15461;41.652;9.378;2022-09-14T15:43:50;19.98;;;2.60;;
28176;SDS011;15461;41.652;9.378;2022-09-14T15:46:16;24.60;;;4.07;;
28176;SDS011;15461;41.652;9.378;2022-09-14T15:48:42;26.65;;;3.83;;
28176;SDS011;15461;41.652;9.378;2022-09-14T15:51:08;27.55;;;3.83;;
28176;SDS011;15461;41.652;9.378;2022-09-14T15:53:36;17.27;;;3.40;;
28176;SDS011;15461;41.652;9.378;2022-09-14T15:56:08;22.05;;;3.45;;
28176;SDS011;15461;41.652;9.378;2022-09-14T15:58:35;23.33;;;4.30;;
28176;SDS011;15461;41.652;9.378;2022-09-14T16:01:11;34.30;;;4.25;;
28176;SDS011;15461;41.652;9.378;2022-09-14T16:03:39;30.08;;;3.80;;
28176;SDS011;15461;41.652;9.378;2022-09-14T16:06:07;17.38;;;2.97;;
28176;SDS011;15461;41.652;9.378;2022-09-14T16:08:37;17.27;;;2.47;;
28176;SDS011;15461;41.652;9.378;2022-09-14T16:11:04;15.57;;;2.28;;
28176;SDS011;15461;41.652;9.378;2022-09-14T16:13:32;20.00;;;3.30;;
28176;SDS011;15461;41.652;9.378;2022-09-14T16:16:03;18.77;;;3.55;;
28176;SDS011;15461;41.652;9.378;2022-09-14T16:18:29;30.48;;;3.88;;
28176;SDS011;15461;41.652;9.378;2022-09-14T16:20:55;26.13;;;3.90;;
28176;SDS011;15461;41.652;9.378;2022-09-14T16:23:27;23.30;;;3.53;;
28176;SDS011;15461;41.652;9.378;2022-09-14T16:25:53;21.90;;;3.13;;
28176;SDS011;15461;41.652;9.378;2022-09-14T16:28:19;22.58;;;3.03;;
28176;SDS011;15461;41.652;9.378;2022-09-14T16:30:45;24.75;;;3.55;;
28176;SDS011;15461;41.652;9.378;2022-09-14T16:33:12;20.90;;;3.22;;
28176;SDS011;15461;41.652;9.378;2022-09-14T16:35:38;24.25;;;3.10;;
28176;SDS011;15461;41.652;9.378;2022-09-14T16:38:04;31.38;;;4.10;;
28176;SDS011;15461;41.652;9.378;2022-09-14T16:40:30;26.38;;;3.88;;
28176;SDS011;15461;41.652;9.378;2022-09-14T16:42:58;24.65;;;3.30;;
28176;SDS011;15461;41.652;9.378;2022-09-14T16:45:24;19.77;;;2.88;;
28176;SDS011;15461;41.652;9.378;2022-09-14T16:47:50;22.70;;;3.25;;
28176;SDS011;15461;41.652;9.378;2022-09-14T16:50:16;25.90;;;3.17;;
28176;SDS011;15461;41.652;9.378;2022-09-14T16:52:42;16.60;;;2.78;;
28176;SDS011;15461;41.652;9.378;2022-09-14T16:55:07;13.20;;;2.58;;
28176;SDS011;15461;41.652;9.378;2022-09-14T16:57:33;15.55;;;3.50;;
28176;SDS011;15461;41.652;9.378;2022-09-14T16:59:59;13.68;;;2.75;;
28176;SDS011;15461;41.652;9.378;2022-09-14T17:02:26;15.48;;;2.85;;
28176;SDS011;15461;41.652;9.378;2022-09-14T17:04:51;17.83;;;2.83;;
28176;SDS011;15461;41.652;9.378;2022-09-14T17:07:18;22.55;;;3.30;;
28176;SDS011;15461;41.652;9.378;2022-09-14T17:09:45;25.77;;;2.97;;
28176;SDS011;15461;41.652;9.378;2022-09-14T17:12:13;21.13;;;3.00;;
28176;SDS011;15461;41.652;9.378;2022-09-14T17:14:38;18.05;;;2.88;;
28176;SDS011;15461;41.652;9.378;2022-09-14T17:17:04;26.80;;;2.72;;
28176;SDS011;15461;41.652;9.378;2022-09-14T17:19:31;19.45;;;2.90;;
28176;SDS011;15461;41.652;9.378;2022-09-14T17:21:57;25.45;;;3.20;;
28176;SDS011;15461;41.652;9.378;2022-09-14T17:24:23;14.07;;;2.53;;
28176;SDS011;15461;41.652;9.378;2022-09-14T17:26:50;17.27;;;2.80;;
28176;SDS011;15461;41.652;9.378;2022-09-14T17:29:16;14.90;;;3.10;;
28176;SDS011;15461;41.652;9.378;2022-09-14T17:31:43;14.75;;;2.40;;
28176;SDS011;15461;41.652;9.378;2022-09-14T17:34:10;13.40;;;2.67;;
28176;SDS011;15461;41.652;9.378;2022-09-14T17:36:37;25.10;;;2.90;;
28176;SDS011;15461;41.652;9.378;2022-09-14T17:39:03;23.15;;;3.63;;
28176;SDS011;15461;41.652;9.378;2022-09-14T17:41:30;14.43;;;2.47;;
28176;SDS011;15461;41.652;9.378;2022-09-14T17:43:59;20.55;;;2.75;;
28176;SDS011;15461;41.652;9.378;2022-09-14T17:46:26;16.90;;;2.47;;
28176;SDS011;15461;41.652;9.378;2022-09-14T17:48:54;15.05;;;2.42;;
28176;SDS011;15461;41.652;9.378;2022-09-14T17:51:22;16.98;;;2.78;;
28176;SDS011;15461;41.652;9.378;2022-09-14T17:53:51;20.33;;;2.60;;
28176;SDS011;15461;41.652;9.378;2022-09-14T17:56:20;25.35;;;2.85;;
28176;SDS011;15461;41.652;9.378;2022-09-14T17:58:48;16.85;;;2.90;;